Aviation

Metar/Speci

station

VRMH

METAR VRMH 260300Z 05006KT 9999 FEW019 30/25 Q1010=

43 minutes ago

VRMM

METAR VRMM 260300Z 06012KT 8000 FEW018 FEW019CB 30/25 Q1010 CB NW NOSIG=

44 minutes ago

VRMK

METAR VRMK 260300Z 02005KT 9999 FEW018 29/26 Q1009=

44 minutes ago

VRMT

METAR VRMT 260300Z 36004KT 9999 FEW018TCU BKN130 29/27 Q1009=

44 minutes ago

VRMG

METAR VRMG 260300Z 05010KT 9999 FEW018TCU 30/26 Q1009 NOSIG=

44 minutes ago

Synop

station

43533

AAXX 26034 43533 42462 10506 10296 20250 30102 40104 81100 333 20270 59011 81819 555 10040=

42 minutes ago

43555

AAXX 26034 43555 41458 30712 10300 20245 30098 40100 70511 82300 333 20276 59005 82818 81919 555 10374=

44 minutes ago

43577

AAXX 26034 43577 42462 20205 10293 20262 30097 40099 82232 333 20273 58000 82818 555 10485=

44 minutes ago

43588

AAXX 26034 43588 42465 73604 10294 20267 30092 40093 8223/ 333 20274 59004 82818 86363 555 10383=

44 minutes ago

43599

AAXX 26034 43599 42460 40510 10300 20260 30088 40090 82231 333 20266 59007 82818 555 10291=

43 minutes ago

Tafs

station

VRMH

TAF VRMH 252300Z 2600/2706 04011KT 9999 FEW018TCU=

4 hours ago

VRMM

TAF VRMM 252300Z 2600/2706 05013KT 9999 FEW018TCU TEMPO 2604/2610 FEW017CB=

4 hours ago

VRMK

TAF VRMK 252300Z 2600/2624 04011KT 9999 SCT018TCU TEMPO 2600/2606 FEW017CB=

4 hours ago

VRMT

TAF VRMT 252300Z 2600/2624 03012KT 9999 SCT018TCU SCT100 TEMPO 2600/2606 FEW017CB=

4 hours ago

VRMG

TAF VRMG 252300Z 2600/2706 03013KT 9999 SCT018TCU SCT100 TEMPO 2600/2606 5000 SHRA FEW017CB=

4 hours ago

Sigmet

Flight folders

No flight folder available at the moment.